createdAt,value
2023-05-22T00:01:56.611Z,16.00
2023-05-22T00:04:23.866Z,16.00
2023-05-22T00:06:50.782Z,16.00
2023-05-22T00:09:17.771Z,16.00
2023-05-22T00:11:44.804Z,16.00
2023-05-22T00:14:13.404Z,15.90
2023-05-22T00:16:41.041Z,15.90
2023-05-22T00:19:13.191Z,15.90
2023-05-22T00:21:40.358Z,15.80
2023-05-22T00:24:07.504Z,15.80
2023-05-22T00:26:34.544Z,15.70
2023-05-22T00:29:01.634Z,15.60
2023-05-22T00:31:29.014Z,15.60
2023-05-22T00:33:56.008Z,15.60
2023-05-22T00:36:23.709Z,15.50
2023-05-22T00:38:50.828Z,15.50
2023-05-22T00:41:17.760Z,15.50
2023-05-22T00:43:47.547Z,15.50
2023-05-22T00:46:14.501Z,15.50
2023-05-22T00:48:41.491Z,15.40
2023-05-22T00:51:08.907Z,15.40
2023-05-22T00:53:37.074Z,15.40
2023-05-22T00:56:04.960Z,15.40
2023-05-22T00:58:31.849Z,15.30
2023-05-22T01:00:59.448Z,15.20
2023-05-22T01:03:27.453Z,15.20
2023-05-22T01:05:55.614Z,15.10
2023-05-22T01:08:22.873Z,15.10
2023-05-22T01:11:00.808Z,15.10
2023-05-22T01:14:10.825Z,15.10
2023-05-22T01:17:08.876Z,15.10
2023-05-22T01:20:01.075Z,15.10
2023-05-22T01:23:03.903Z,15.10
2023-05-22T01:25:52.917Z,15.00
2023-05-22T01:28:43.064Z,15.00
2023-05-22T01:31:13.241Z,15.00
2023-05-22T01:33:49.898Z,15.00
2023-05-22T01:36:20.289Z,15.00
2023-05-22T01:38:47.961Z,15.00
2023-05-22T01:41:16.143Z,14.90
2023-05-22T01:43:44.348Z,14.90
2023-05-22T01:46:11.217Z,14.90
2023-05-22T01:48:38.086Z,14.90
2023-05-22T01:51:19.317Z,14.90
2023-05-22T01:53:50.524Z,14.90
2023-05-22T01:56:30.602Z,14.80
2023-05-22T01:59:13.639Z,14.80
2023-05-22T02:01:42.847Z,14.80
2023-05-22T02:04:30.634Z,14.80
2023-05-22T02:07:18.231Z,14.80
2023-05-22T02:09:47.493Z,14.80
2023-05-22T02:12:15.088Z,14.70
2023-05-22T02:14:43.506Z,14.70
2023-05-22T02:17:10.380Z,14.70
2023-05-22T02:19:37.600Z,14.70
2023-05-22T02:22:05.757Z,14.70
2023-05-22T02:24:37.004Z,14.70
2023-05-22T02:27:04.078Z,14.70
2023-05-22T02:29:31.085Z,14.60
2023-05-22T02:31:58.030Z,14.60
2023-05-22T02:34:26.957Z,14.60
2023-05-22T02:36:53.953Z,14.60
2023-05-22T02:39:20.861Z,14.60
2023-05-22T02:41:47.709Z,14.60
2023-05-22T02:44:14.621Z,14.60
2023-05-22T02:46:43.015Z,14.60
2023-05-22T02:49:09.942Z,14.60
2023-05-22T02:51:37.196Z,14.60
2023-05-22T02:54:04.128Z,14.60
2023-05-22T02:56:31.135Z,14.60
2023-05-22T02:58:58.049Z,14.60
2023-05-22T03:01:26.431Z,14.70
2023-05-22T03:03:54.995Z,14.60
2023-05-22T03:06:23.154Z,14.70
2023-05-22T03:08:50.757Z,14.70
2023-05-22T03:11:17.630Z,14.70
2023-05-22T03:13:44.959Z,14.70
2023-05-22T03:16:11.990Z,14.60
2023-05-22T03:18:43.519Z,14.70
2023-05-22T03:21:10.496Z,14.70
2023-05-22T03:23:37.367Z,14.60
2023-05-22T03:26:04.329Z,14.60
2023-05-22T03:28:34.612Z,14.60
2023-05-22T03:31:01.586Z,14.50
2023-05-22T03:33:35.047Z,14.50
2023-05-22T03:36:03.499Z,14.50
2023-05-22T03:38:30.434Z,14.50
2023-05-22T03:40:57.334Z,14.50
2023-05-22T03:43:24.564Z,14.50
2023-05-22T03:45:51.482Z,14.50
2023-05-22T03:48:18.476Z,14.50
2023-05-22T03:50:45.419Z,14.50
2023-05-22T03:53:12.653Z,14.50
2023-05-22T03:55:39.679Z,14.50
2023-05-22T03:58:06.565Z,14.50
2023-05-22T04:00:33.490Z,14.40
2023-05-22T04:03:00.882Z,14.40
2023-05-22T04:05:28.148Z,14.40
2023-05-22T04:07:55.118Z,14.40
2023-05-22T04:10:23.474Z,14.40
2023-05-22T04:12:50.895Z,14.40
2023-05-22T04:15:17.769Z,14.40
2023-05-22T04:17:44.777Z,14.50
2023-05-22T04:20:12.117Z,14.50
2023-05-22T04:22:39.807Z,14.50
2023-05-22T04:25:07.167Z,14.50
2023-05-22T04:27:34.269Z,14.60
2023-05-22T04:30:03.629Z,14.60
2023-05-22T04:32:31.610Z,14.60
2023-05-22T04:35:00.355Z,14.60
2023-05-22T04:37:28.694Z,14.60
2023-05-22T04:39:58.213Z,14.60
2023-05-22T04:42:25.330Z,14.50
2023-05-22T04:44:57.939Z,14.60
2023-05-22T04:47:24.776Z,14.60
2023-05-22T04:49:51.816Z,14.60
2023-05-22T04:52:18.684Z,14.70
2023-05-22T04:55:06.654Z,14.80
2023-05-22T04:57:52.753Z,14.80
2023-05-22T05:00:38.344Z,14.90
2023-05-22T05:03:07.916Z,15.00
2023-05-22T05:05:35.070Z,15.00
2023-05-22T05:08:02.384Z,15.10
2023-05-22T05:10:29.336Z,15.10
2023-05-22T05:12:56.776Z,15.20
2023-05-22T05:15:23.923Z,15.20
2023-05-22T05:17:51.446Z,15.30
2023-05-22T05:20:18.634Z,15.30
2023-05-22T05:22:46.153Z,15.40
2023-05-22T05:25:13.961Z,15.50
2023-05-22T05:27:40.907Z,15.50
2023-05-22T05:30:09.557Z,15.60
2023-05-22T05:32:50.968Z,15.70
2023-05-22T05:35:50.186Z,15.80
2023-05-22T05:38:19.274Z,15.80
2023-05-22T05:40:46.864Z,16.00
2023-05-22T05:43:15.328Z,16.10
2023-05-22T05:45:43.718Z,16.20
2023-05-22T05:48:11.932Z,16.30
2023-05-22T05:50:42.763Z,16.40
2023-05-22T05:53:09.695Z,16.50
2023-05-22T05:55:36.568Z,16.60
2023-05-22T05:58:04.342Z,16.70
2023-05-22T06:00:54.827Z,16.80
2023-05-22T06:03:21.839Z,17.00
2023-05-22T06:05:59.833Z,17.10
2023-05-22T06:08:46.797Z,17.30
2023-05-22T06:11:13.820Z,17.40
2023-05-22T06:13:50.716Z,17.60
2023-05-22T06:16:17.650Z,17.60
2023-05-22T06:18:46.219Z,17.70
2023-05-22T06:21:13.118Z,17.70
2023-05-22T06:23:39.975Z,17.80
2023-05-22T06:26:08.168Z,17.80
2023-05-22T06:28:37.951Z,17.80
2023-05-22T06:31:04.981Z,17.80
2023-05-22T06:33:34.384Z,17.80
2023-05-22T06:36:01.515Z,17.80
2023-05-22T06:38:28.719Z,17.80
2023-05-22T06:40:55.669Z,17.90
2023-05-22T06:43:25.570Z,17.90
2023-05-22T06:46:00.828Z,18.00
2023-05-22T06:48:46.250Z,18.10
2023-05-22T06:51:21.932Z,18.10
2023-05-22T06:53:52.055Z,18.30
2023-05-22T06:56:25.363Z,18.30
2023-05-22T06:58:54.769Z,18.40
2023-05-22T07:01:26.790Z,18.50
2023-05-22T07:04:08.925Z,18.60
2023-05-22T07:06:41.766Z,18.70
2023-05-22T07:09:11.051Z,19.00
2023-05-22T07:11:38.331Z,19.10
2023-05-22T07:14:05.161Z,19.10
2023-05-22T07:16:32.135Z,19.10
2023-05-22T07:18:59.525Z,19.30
2023-05-22T07:21:26.879Z,19.50
2023-05-22T07:23:55.009Z,19.70
2023-05-22T07:26:22.802Z,19.70
2023-05-22T07:28:59.226Z,19.60
2023-05-22T07:31:26.163Z,19.60
2023-05-22T07:33:56.005Z,19.50
2023-05-22T07:36:22.989Z,19.50
2023-05-22T07:38:49.872Z,19.50
2023-05-22T07:41:17.436Z,19.50
2023-05-22T07:43:44.805Z,19.50
2023-05-22T07:46:16.060Z,19.50
2023-05-22T07:48:53.693Z,19.70
2023-05-22T07:51:20.603Z,19.80
2023-05-22T07:53:50.339Z,19.90
2023-05-22T07:56:17.590Z,20.00
2023-05-22T07:58:48.253Z,20.00
2023-05-22T08:01:18.284Z,20.00
2023-05-22T08:03:45.353Z,20.00
2023-05-22T08:06:12.713Z,20.00
2023-05-22T08:08:39.686Z,20.10
2023-05-22T08:11:06.929Z,20.20
2023-05-22T08:13:34.000Z,20.20
2023-05-22T08:16:01.553Z,20.30
2023-05-22T08:18:29.619Z,20.20
2023-05-22T08:20:56.979Z,20.20
2023-05-22T08:23:23.839Z,20.20
2023-05-22T08:25:50.771Z,20.30
2023-05-22T08:28:17.675Z,20.40
2023-05-22T08:30:44.646Z,20.40
2023-05-22T08:33:12.011Z,20.50
2023-05-22T08:35:39.379Z,20.60
2023-05-22T08:38:06.274Z,20.90
2023-05-22T08:40:37.948Z,21.20
2023-05-22T08:43:06.235Z,21.30
2023-05-22T08:45:34.163Z,21.40
2023-05-22T08:48:05.877Z,21.60
2023-05-22T08:50:36.849Z,21.80
2023-05-22T08:53:06.651Z,21.80
2023-05-22T08:55:34.042Z,22.00
2023-05-22T08:58:01.626Z,22.10
2023-05-22T09:00:29.618Z,22.30
2023-05-22T09:02:57.455Z,22.50
2023-05-22T09:05:26.716Z,22.70
2023-05-22T09:07:56.616Z,22.90
2023-05-22T09:10:25.752Z,23.40
2023-05-22T09:13:04.543Z,24.00
2023-05-22T09:15:32.552Z,24.50
2023-05-22T09:18:00.662Z,25.10
2023-05-22T09:20:27.616Z,25.50
2023-05-22T09:22:54.408Z,25.80
2023-05-22T09:25:22.165Z,26.20
2023-05-22T09:27:49.266Z,26.50
2023-05-22T09:30:17.707Z,26.70
2023-05-22T09:32:50.989Z,26.70
2023-05-22T09:35:19.686Z,26.90
2023-05-22T09:37:46.825Z,27.20
2023-05-22T09:40:16.402Z,27.40
2023-05-22T09:42:46.148Z,27.40
2023-05-22T09:45:13.414Z,27.60
2023-05-22T09:47:40.763Z,27.70
2023-05-22T09:50:10.296Z,27.70
2023-05-22T09:52:37.925Z,27.80
2023-05-22T09:55:07.047Z,27.80
2023-05-22T09:57:45.069Z,27.60
2023-05-22T10:00:15.451Z,27.50
2023-05-22T10:02:46.458Z,27.70
2023-05-22T10:05:23.453Z,27.90
2023-05-22T10:07:56.763Z,28.00
2023-05-22T10:10:25.258Z,28.20
2023-05-22T10:12:57.198Z,28.30
2023-05-22T10:15:24.723Z,28.40
2023-05-22T10:17:51.829Z,28.20
2023-05-22T10:20:19.944Z,28.30
2023-05-22T10:22:48.911Z,28.30
2023-05-22T10:25:21.800Z,28.30
2023-05-22T10:27:51.995Z,28.40
2023-05-22T10:30:36.907Z,28.50
2023-05-22T10:33:38.764Z,28.40
2023-05-22T10:36:10.377Z,28.30
2023-05-22T10:38:58.685Z,28.20
2023-05-22T10:41:26.258Z,28.20
2023-05-22T10:43:56.727Z,28.30
2023-05-22T10:46:23.983Z,28.40
2023-05-22T10:48:54.103Z,28.40
2023-05-22T10:51:24.919Z,28.40
2023-05-22T10:54:02.372Z,28.50
2023-05-22T10:56:36.085Z,28.50
2023-05-22T10:59:05.851Z,28.20
2023-05-22T11:01:36.146Z,28.10
2023-05-22T11:04:11.865Z,28.30
2023-05-22T11:07:02.160Z,28.40
2023-05-22T11:09:33.559Z,28.40
2023-05-22T11:12:12.203Z,28.20
2023-05-22T11:14:39.376Z,28.20
2023-05-22T11:17:06.670Z,27.80
2023-05-22T11:19:33.914Z,27.80
2023-05-22T11:22:03.267Z,27.80
2023-05-22T11:24:36.838Z,27.90
2023-05-22T11:27:07.863Z,28.00
2023-05-22T11:29:35.623Z,28.10
2023-05-22T11:32:02.890Z,28.30
2023-05-22T11:34:29.768Z,28.10
2023-05-22T11:37:00.106Z,27.90
2023-05-22T11:39:27.427Z,27.80
2023-05-22T11:41:54.708Z,27.70
2023-05-22T11:44:21.728Z,27.50
2023-05-22T11:46:48.713Z,27.60
2023-05-22T11:49:17.120Z,27.60
2023-05-22T11:51:44.491Z,27.70
2023-05-22T11:54:11.773Z,27.80
2023-05-22T11:56:38.656Z,27.70
2023-05-22T11:59:05.538Z,27.80
2023-05-22T12:01:32.573Z,27.80
2023-05-22T12:03:59.633Z,27.80
2023-05-22T12:06:26.801Z,27.80
2023-05-22T12:08:54.239Z,27.90
2023-05-22T12:11:21.580Z,28.10
2023-05-22T12:13:52.017Z,28.20
2023-05-22T12:16:21.858Z,28.30
2023-05-22T12:18:55.566Z,28.40
2023-05-22T12:21:22.730Z,28.20
2023-05-22T12:23:51.181Z,28.10
2023-05-22T12:26:18.290Z,28.10
2023-05-22T12:28:45.208Z,28.00
2023-05-22T12:31:20.878Z,28.20
2023-05-22T12:33:47.905Z,28.40
2023-05-22T12:36:14.991Z,28.50
2023-05-22T12:38:41.833Z,28.60
2023-05-22T12:41:08.689Z,28.50
2023-05-22T12:43:35.818Z,28.50
2023-05-22T12:46:03.122Z,28.30
2023-05-22T12:48:30.071Z,28.30
2023-05-22T12:50:56.986Z,28.40
2023-05-22T12:53:23.927Z,28.50
2023-05-22T12:55:50.845Z,28.70
2023-05-22T12:58:17.700Z,28.90
2023-05-22T13:00:44.594Z,28.80
2023-05-22T13:03:12.355Z,28.80
2023-05-22T13:05:39.571Z,28.70
2023-05-22T13:08:06.594Z,28.70
2023-05-22T13:10:33.493Z,28.70
2023-05-22T13:13:00.388Z,28.80
2023-05-22T13:15:31.256Z,29.00
2023-05-22T13:17:58.155Z,29.10
2023-05-22T13:20:25.250Z,29.20
2023-05-22T13:22:52.114Z,29.40
2023-05-22T13:25:19.168Z,29.20
2023-05-22T13:27:46.374Z,28.90
2023-05-22T13:30:13.565Z,28.80
2023-05-22T13:32:40.669Z,28.70
2023-05-22T13:35:07.882Z,28.60
2023-05-22T13:37:34.959Z,28.60
2023-05-22T13:40:01.968Z,28.60
2023-05-22T13:42:28.962Z,28.70
2023-05-22T13:44:55.920Z,28.70
2023-05-22T13:47:23.288Z,28.70
2023-05-22T13:49:50.398Z,28.80
2023-05-22T13:52:17.267Z,29.00
2023-05-22T13:54:44.167Z,29.30
2023-05-22T13:57:11.083Z,29.50
2023-05-22T13:59:37.934Z,29.70
2023-05-22T14:02:05.064Z,29.90
2023-05-22T14:04:33.284Z,30.10
2023-05-22T14:07:00.318Z,30.00
2023-05-22T14:09:27.615Z,30.00
2023-05-22T14:11:54.688Z,30.10
2023-05-22T14:14:23.816Z,30.10
2023-05-22T14:16:51.986Z,30.10
2023-05-22T14:19:20.574Z,30.10
2023-05-22T14:21:50.061Z,30.10
2023-05-22T14:24:17.565Z,30.20
2023-05-22T14:26:44.870Z,30.30
2023-05-22T14:29:11.902Z,30.40
2023-05-22T14:31:51.704Z,30.70
2023-05-22T14:34:19.116Z,30.70
2023-05-22T14:36:46.698Z,30.70
2023-05-22T14:39:13.578Z,30.70
2023-05-22T14:41:40.422Z,30.70
2023-05-22T14:44:07.256Z,30.80
2023-05-22T14:46:34.169Z,31.00
2023-05-22T14:49:01.103Z,30.90
2023-05-22T14:51:28.002Z,31.00
2023-05-22T14:53:55.091Z,31.00
2023-05-22T14:56:22.918Z,30.80
2023-05-22T14:58:50.056Z,30.80
2023-05-22T15:01:16.952Z,30.90
2023-05-22T15:03:43.798Z,30.90
2023-05-22T15:06:10.647Z,30.70
2023-05-22T15:08:37.567Z,30.80
2023-05-22T15:11:04.459Z,30.80
2023-05-22T15:13:31.354Z,30.50
2023-05-22T15:15:58.444Z,30.40
2023-05-22T15:18:27.126Z,30.20
2023-05-22T15:20:54.229Z,30.20
2023-05-22T15:23:25.019Z,30.20
2023-05-22T15:25:53.864Z,30.00
2023-05-22T15:28:21.375Z,29.70
2023-05-22T15:30:48.464Z,29.50
2023-05-22T15:33:15.796Z,29.20
2023-05-22T15:35:46.405Z,28.90
2023-05-22T15:38:15.379Z,28.60
2023-05-22T15:40:43.277Z,28.40
2023-05-22T15:43:10.736Z,28.20
2023-05-22T15:45:37.912Z,27.90
2023-05-22T15:48:06.021Z,27.70
2023-05-22T15:50:33.990Z,27.50
2023-05-22T15:53:01.445Z,27.10
2023-05-22T15:55:28.608Z,26.90
2023-05-22T15:57:55.474Z,26.70
2023-05-22T16:00:22.327Z,26.50
2023-05-22T16:02:49.467Z,26.10
2023-05-22T16:05:16.469Z,25.70
2023-05-22T16:07:43.449Z,25.40
2023-05-22T16:10:10.830Z,25.10
2023-05-22T16:12:39.755Z,25.00
2023-05-22T16:15:07.504Z,24.70
2023-05-22T16:17:34.607Z,24.50
2023-05-22T16:20:01.667Z,24.40
2023-05-22T16:22:44.133Z,24.20
2023-05-22T16:25:17.870Z,23.90
2023-05-22T16:27:44.935Z,23.70
2023-05-22T16:30:12.465Z,23.60
2023-05-22T16:32:39.416Z,23.50
2023-05-22T16:35:06.513Z,23.30
2023-05-22T16:37:33.562Z,23.20
2023-05-22T16:40:00.589Z,23.00
2023-05-22T16:42:27.568Z,22.90
2023-05-22T16:44:54.432Z,22.80
2023-05-22T16:47:22.019Z,22.30
2023-05-22T16:49:50.081Z,21.80
2023-05-22T16:52:17.976Z,21.20
2023-05-22T16:54:44.865Z,20.80
2023-05-22T16:57:11.769Z,20.70
2023-05-22T16:59:38.766Z,20.50
2023-05-22T17:02:05.715Z,20.40
2023-05-22T17:04:32.754Z,20.40
2023-05-22T17:06:59.501Z,20.30
2023-05-22T17:09:27.537Z,20.20
2023-05-22T17:11:54.884Z,20.20
2023-05-22T17:14:22.246Z,20.10
2023-05-22T17:16:49.443Z,19.90
2023-05-22T17:19:18.036Z,19.90
2023-05-22T17:21:45.037Z,19.80
2023-05-22T17:24:14.686Z,19.80
2023-05-22T17:26:42.486Z,19.80
2023-05-22T17:29:10.865Z,19.80
2023-05-22T17:31:39.472Z,19.70
2023-05-22T17:34:07.040Z,19.70
2023-05-22T17:36:34.179Z,19.70
2023-05-22T17:39:01.124Z,19.70
2023-05-22T17:41:28.043Z,19.60
2023-05-22T17:43:56.988Z,19.70
2023-05-22T17:46:23.954Z,19.60
2023-05-22T17:48:51.091Z,19.60
2023-05-22T17:51:17.916Z,19.60
2023-05-22T17:53:44.767Z,19.50
2023-05-22T17:56:11.701Z,19.50
2023-05-22T17:58:39.006Z,19.50
2023-05-22T18:01:05.984Z,19.50
2023-05-22T18:03:33.866Z,19.40
2023-05-22T18:06:00.908Z,19.40
2023-05-22T18:08:28.337Z,19.40
2023-05-22T18:10:56.089Z,19.40
2023-05-22T18:13:23.024Z,19.40
2023-05-22T18:15:51.551Z,19.40
2023-05-22T18:18:18.787Z,19.40
2023-05-22T18:20:46.119Z,19.40
2023-05-22T18:23:13.273Z,19.40
2023-05-22T18:25:40.213Z,19.40
2023-05-22T18:28:08.143Z,19.40
2023-05-22T18:30:35.076Z,19.40
2023-05-22T18:33:02.069Z,19.40
2023-05-22T18:35:29.108Z,19.40
2023-05-22T18:37:57.001Z,19.40
2023-05-22T18:40:24.108Z,19.30
2023-05-22T18:42:52.070Z,19.30
2023-05-22T18:45:19.096Z,19.30
2023-05-22T18:47:46.179Z,19.30
2023-05-22T18:50:13.127Z,19.30
2023-05-22T18:52:40.208Z,19.30
2023-05-22T18:55:08.435Z,19.30
2023-05-22T18:57:35.483Z,19.20
2023-05-22T19:00:02.471Z,19.20
2023-05-22T19:02:29.539Z,19.20
2023-05-22T19:04:56.438Z,19.10
2023-05-22T19:07:23.420Z,19.10
2023-05-22T19:09:50.535Z,19.00
2023-05-22T19:12:17.598Z,19.00
2023-05-22T19:14:44.545Z,19.00
2023-05-22T19:17:12.491Z,19.00
2023-05-22T19:19:39.678Z,18.90
2023-05-22T19:22:06.603Z,18.90
2023-05-22T19:24:33.462Z,18.90
2023-05-22T19:27:00.333Z,18.80
2023-05-22T19:29:28.041Z,18.80
2023-05-22T19:31:55.068Z,18.70
2023-05-22T19:34:22.019Z,18.70
2023-05-22T19:36:51.571Z,18.60
2023-05-22T19:39:18.522Z,18.50
2023-05-22T19:41:45.478Z,18.50
2023-05-22T19:44:12.540Z,18.50
2023-05-22T19:46:39.480Z,18.50
2023-05-22T19:49:06.430Z,18.40
2023-05-22T19:51:33.423Z,18.50
2023-05-22T19:54:00.368Z,18.40
2023-05-22T19:56:28.170Z,18.40
2023-05-22T19:58:55.072Z,18.40
2023-05-22T20:01:22.430Z,18.40
2023-05-22T20:03:49.478Z,18.40
2023-05-22T20:06:16.444Z,18.30
2023-05-22T20:08:44.132Z,18.30
2023-05-22T20:11:11.053Z,18.30
2023-05-22T20:13:38.018Z,18.20
2023-05-22T20:16:11.463Z,18.10
2023-05-22T20:18:38.881Z,18.10
2023-05-22T20:21:05.765Z,18.00
2023-05-22T20:23:32.832Z,18.00
2023-05-22T20:25:59.852Z,17.90
2023-05-22T20:28:26.883Z,17.80
2023-05-22T20:30:53.886Z,17.80
2023-05-22T20:33:20.928Z,17.80
2023-05-22T20:35:49.238Z,17.80
2023-05-22T20:38:18.894Z,17.70
2023-05-22T20:40:47.447Z,17.70
2023-05-22T20:43:14.719Z,17.70
2023-05-22T20:45:45.465Z,17.70
2023-05-22T20:48:13.393Z,17.70
2023-05-22T20:50:41.004Z,17.70
2023-05-22T20:53:08.452Z,17.60
2023-05-22T20:55:35.619Z,17.70
2023-05-22T20:58:02.524Z,17.60
2023-05-22T21:00:29.871Z,17.60
2023-05-22T21:02:58.370Z,17.50
2023-05-22T21:05:26.127Z,17.50
2023-05-22T21:07:53.042Z,17.40
2023-05-22T21:10:19.965Z,17.40
2023-05-22T21:12:46.878Z,17.30
2023-05-22T21:15:13.854Z,17.30
2023-05-22T21:17:40.942Z,17.30
2023-05-22T21:20:08.782Z,17.20
2023-05-22T21:22:35.623Z,17.20
2023-05-22T21:25:02.457Z,17.00
2023-05-22T21:27:29.331Z,17.00
2023-05-22T21:29:56.172Z,16.90
2023-05-22T21:32:23.039Z,16.90
2023-05-22T21:34:49.945Z,16.80
2023-05-22T21:37:16.811Z,16.70
2023-05-22T21:39:43.664Z,16.60
2023-05-22T21:42:10.583Z,16.60
2023-05-22T21:44:37.838Z,16.50
2023-05-22T21:47:04.869Z,16.40
2023-05-22T21:49:32.961Z,16.40
2023-05-22T21:51:59.793Z,16.40
2023-05-22T21:54:26.635Z,16.20
2023-05-22T21:56:54.196Z,16.30
2023-05-22T21:59:21.081Z,16.20
2023-05-22T22:01:47.934Z,16.20
2023-05-22T22:04:14.851Z,16.10
2023-05-22T22:06:41.699Z,16.00
2023-05-22T22:09:09.132Z,15.90
2023-05-22T22:11:36.088Z,15.90
2023-05-22T22:14:03.575Z,15.80
2023-05-22T22:16:35.682Z,15.80
2023-05-22T22:19:03.295Z,15.80
2023-05-22T22:21:30.459Z,15.70
2023-05-22T22:23:57.381Z,15.60
2023-05-22T22:26:24.428Z,15.60
2023-05-22T22:28:51.326Z,15.60
2023-05-22T22:31:18.383Z,15.50
2023-05-22T22:33:45.319Z,15.50
2023-05-22T22:36:12.129Z,15.40
2023-05-22T22:38:38.975Z,15.40
2023-05-22T22:41:08.572Z,15.40
2023-05-22T22:43:36.062Z,15.40
2023-05-22T22:46:02.960Z,15.30
2023-05-22T22:48:29.839Z,15.30
2023-05-22T22:50:57.829Z,15.20
2023-05-22T22:53:24.678Z,15.20
2023-05-22T22:55:59.234Z,15.20
2023-05-22T22:58:26.149Z,15.20
2023-05-22T23:00:53.192Z,15.10
2023-05-22T23:03:20.296Z,15.00
2023-05-22T23:05:47.142Z,15.00
2023-05-22T23:08:13.994Z,14.90
2023-05-22T23:10:40.899Z,14.90
2023-05-22T23:13:07.795Z,14.90
2023-05-22T23:15:34.752Z,14.90
2023-05-22T23:18:01.610Z,14.90
2023-05-22T23:20:28.470Z,14.90
2023-05-22T23:22:55.285Z,14.90
2023-05-22T23:25:22.127Z,14.90
2023-05-22T23:27:48.992Z,14.80
2023-05-22T23:30:15.932Z,14.80
2023-05-22T23:32:42.796Z,14.80
2023-05-22T23:35:10.843Z,14.80
2023-05-22T23:37:37.966Z,14.80
2023-05-22T23:40:06.615Z,14.80
2023-05-22T23:42:35.265Z,14.70
2023-05-22T23:45:04.078Z,14.80
2023-05-22T23:47:31.630Z,14.80
2023-05-22T23:49:59.597Z,14.70
2023-05-22T23:52:26.965Z,14.70
2023-05-22T23:54:53.868Z,14.70
2023-05-22T23:57:20.797Z,14.70
2023-05-22T23:59:47.648Z,14.70
